EDDC Airport Information

Runway Information
Runway 04 Length 8228 ft width 167 ft
Elevation 755 ft Threshold 0 ft Heading 41
Runway 22 Length 8228 ft Width 167 ft
Elevation 703 ft Threshold 0 ft Heading 221
Airport Frequencies
Type AFIS Name MUNCHEN IN Frequency 125.8 MHZ
Type APP Name MUNCHEN RA Frequency 125.625 MHZ
Type ATIS Name ATIS Frequency 118.875 MHZ
Type GND Name GND Frequency 121.9 MHZ
Type RMP Name APRON Frequency 121.75 MHZ
Type TWR Name TWR Frequency 119.7 MHZ
Airport Navaids
Type DME Name Dresden Frequency 115400 KHZ
Type VOR-DME Name Dresden Frequency 114350 KHZ
Airport Weather Information & NOTAM
ADDS - METARS form results

(0821 UTC 18 July 2018)
 
METAR text: EDDC 180750Z 31011KT 270V340 9999 FEW025 BKN260 21/13 Q1015 NOSIG
Conditions at: EDDC (DRESDEN/KLOTZSCH, DE) observed 0750 UTC 18 July 2018
Temperature: 21.0°C (70°F)
Dewpoint: 13.0°C (55°F) [RH = 60%]
Pressure (altimeter): 29.97 inches Hg (1015.0 mb)
Winds: from the NW (310 degrees) at 13 MPH (11 knots; 5.7 m/s)
Visibility: 6 or more miles (10+ km)
Ceiling: 26000 feet AGL
Clouds: few clouds at 2500 feet AGL
broken clouds at 26000 feet AGL
Weather: no significant weather observed at this time